Penns Park, Pennsylvania
Current Conditions -  °F | °C
As of 2:54 AM on Saturday 20 Dec 2014 (Local Time) from KDYL Reporting Station
Overcast Overcast  
Wind Chill: 23°   Ceiling: 2300
Heat Index: 30°   Visibility: 10mi
Dew Point: 22°   Wind: 7mph
Humidity: 72%   Direction: 360°N
Pressure: 30.2"   Gusts: NA
Location:  40.27°N, 75°W
Report Text: KDYL 200754Z AUTO 36006KT 10SM OVC023 M01/M06 A3020 RMK AO2 SLP234 T10111056
Loading
Personal Weather Stations






























Interactive Weather Map New forecast layout! Learn more

10-Day Weather Forecast

Advertisements
Track Severe Weather on mobile